createdAt,value
2023-08-13T00:00:48.688Z,19.68
2023-08-13T00:03:19.438Z,19.79
2023-08-13T00:05:52.358Z,19.38
2023-08-13T00:08:22.842Z,19.97
2023-08-13T00:10:53.333Z,20.11
2023-08-13T00:13:23.910Z,20.20
2023-08-13T00:15:54.488Z,20.17
2023-08-13T00:18:25.013Z,20.22
2023-08-13T00:20:57.166Z,20.23
2023-08-13T00:23:28.015Z,20.17
2023-08-13T00:25:58.626Z,19.98
2023-08-13T00:28:29.204Z,20.03
2023-08-13T00:30:59.759Z,20.17
2023-08-13T00:33:30.276Z,20.35
2023-08-13T00:36:02.267Z,20.44
2023-08-13T00:38:32.980Z,20.52
2023-08-13T00:41:03.432Z,20.74
2023-08-13T00:43:33.803Z,20.89
2023-08-13T00:46:04.292Z,20.91
2023-08-13T00:48:35.134Z,21.06
2023-08-13T00:51:08.752Z,21.19
2023-08-13T00:53:47.111Z,21.27
2023-08-13T00:56:18.893Z,21.31
2023-08-13T00:58:49.541Z,21.48
2023-08-13T01:01:20.478Z,21.31
2023-08-13T01:03:50.975Z,21.51
2023-08-13T01:06:30.080Z,21.49
2023-08-13T01:09:06.028Z,21.59
2023-08-13T01:11:44.954Z,21.70
2023-08-13T01:14:23.526Z,21.60
2023-08-13T01:16:55.918Z,21.72
2023-08-13T01:19:27.248Z,21.79
2023-08-13T01:21:59.379Z,21.51
2023-08-13T01:24:31.625Z,21.45
2023-08-13T01:27:19.263Z,21.61
2023-08-13T01:29:56.467Z,21.83
2023-08-13T01:32:32.397Z,21.75
2023-08-13T01:35:03.692Z,21.81
2023-08-13T01:37:34.182Z,21.81
2023-08-13T01:40:06.978Z,21.79
2023-08-13T01:42:37.597Z,21.91
2023-08-13T01:45:09.232Z,21.69
2023-08-13T01:47:39.784Z,22.12
2023-08-13T01:50:11.033Z,22.21
2023-08-13T01:52:41.565Z,22.14
2023-08-13T01:55:14.504Z,22.22
2023-08-13T01:57:44.884Z,22.32
2023-08-13T02:00:15.723Z,22.47
2023-08-13T02:02:46.269Z,22.64
2023-08-13T02:05:17.039Z,22.37
2023-08-13T02:07:47.567Z,22.45
2023-08-13T02:10:19.816Z,22.17
2023-08-13T02:12:53.098Z,22.38
2023-08-13T02:15:26.540Z,22.36
2023-08-13T02:17:57.096Z,22.44
2023-08-13T02:20:27.699Z,22.47
2023-08-13T02:22:58.181Z,22.40
2023-08-13T02:25:30.309Z,22.31
2023-08-13T02:28:00.870Z,22.34
2023-08-13T02:30:31.417Z,22.39
2023-08-13T02:33:01.969Z,22.38
2023-08-13T02:35:32.577Z,22.29
2023-08-13T02:38:03.126Z,22.32
2023-08-13T02:40:35.283Z,22.28
2023-08-13T02:43:06.894Z,22.21
2023-08-13T02:45:37.306Z,22.31
2023-08-13T02:48:08.319Z,22.49
2023-08-13T02:50:38.869Z,22.48
2023-08-13T02:53:09.356Z,22.62
2023-08-13T02:55:41.463Z,22.57
2023-08-13T02:58:11.902Z,22.34
2023-08-13T03:00:42.379Z,22.39
2023-08-13T03:03:12.920Z,22.27
2023-08-13T03:05:43.448Z,22.35
2023-08-13T03:08:13.971Z,22.46
2023-08-13T03:10:46.144Z,22.51
2023-08-13T03:13:16.634Z,22.39
2023-08-13T03:15:47.252Z,22.45
2023-08-13T03:18:18.022Z,22.37
2023-08-13T03:20:48.482Z,22.41
2023-08-13T03:23:18.898Z,22.24
2023-08-13T03:25:50.986Z,22.20
2023-08-13T03:28:24.169Z,22.15
2023-08-13T03:31:00.694Z,22.16
2023-08-13T03:33:31.209Z,22.33
2023-08-13T03:36:02.092Z,22.54
2023-08-13T03:38:32.567Z,22.51
2023-08-13T03:41:04.602Z,22.51
2023-08-13T03:43:35.199Z,22.51
2023-08-13T03:46:06.323Z,22.60
2023-08-13T03:48:37.177Z,22.57
2023-08-13T03:51:07.748Z,22.66
2023-08-13T03:53:38.180Z,22.88
2023-08-13T03:56:11.775Z,23.01
2023-08-13T03:58:42.266Z,22.98
2023-08-13T04:01:12.738Z,22.98
2023-08-13T04:03:43.324Z,23.00
2023-08-13T04:06:13.757Z,23.13
2023-08-13T04:08:44.312Z,23.09
2023-08-13T04:11:16.398Z,23.11
2023-08-13T04:13:46.925Z,23.24
2023-08-13T04:16:17.374Z,23.28
2023-08-13T04:18:47.893Z,23.35
2023-08-13T04:21:18.313Z,23.40
2023-08-13T04:23:48.724Z,23.37
2023-08-13T04:26:20.718Z,23.44
2023-08-13T04:28:51.207Z,23.57
2023-08-13T04:31:22.202Z,23.60
2023-08-13T04:33:53.035Z,23.73
2023-08-13T04:36:23.523Z,23.77
2023-08-13T04:38:55.872Z,23.66
2023-08-13T04:41:29.262Z,23.67
2023-08-13T04:44:00.116Z,23.69
2023-08-13T04:46:30.598Z,23.54
2023-08-13T04:49:01.035Z,23.61
2023-08-13T04:51:31.516Z,23.54
2023-08-13T04:54:02.056Z,23.55
2023-08-13T04:56:34.254Z,23.73
2023-08-13T04:59:04.630Z,23.85
2023-08-13T05:01:35.192Z,23.89
2023-08-13T05:04:05.950Z,23.82
2023-08-13T05:06:36.505Z,23.85
2023-08-13T05:09:08.301Z,23.82
2023-08-13T05:11:41.145Z,23.91
2023-08-13T05:14:11.689Z,24.04
2023-08-13T05:16:42.155Z,24.03
2023-08-13T05:19:12.691Z,24.16
2023-08-13T05:21:43.086Z,24.18
2023-08-13T05:24:13.597Z,24.22
2023-08-13T05:26:47.421Z,24.22
2023-08-13T05:29:19.672Z,23.92
2023-08-13T05:31:50.154Z,23.89
2023-08-13T05:34:20.617Z,23.89
2023-08-13T05:36:51.180Z,23.96
2023-08-13T05:39:22.924Z,24.05
2023-08-13T05:41:55.044Z,23.72
2023-08-13T05:44:25.553Z,23.39
2023-08-13T05:46:56.051Z,22.99
2023-08-13T05:49:26.476Z,22.76
2023-08-13T05:51:57.046Z,22.65
2023-08-13T05:54:28.307Z,22.57
2023-08-13T05:57:00.373Z,22.50
2023-08-13T05:59:30.974Z,22.64
2023-08-13T06:02:01.895Z,22.67
2023-08-13T06:04:32.386Z,22.52
2023-08-13T06:07:03.462Z,22.42
2023-08-13T06:09:34.211Z,22.23
2023-08-13T06:12:06.347Z,22.11
2023-08-13T06:14:36.884Z,21.97
2023-08-13T06:17:14.578Z,21.84
2023-08-13T06:19:46.064Z,21.78
2023-08-13T06:22:20.438Z,21.70
2023-08-13T06:24:51.103Z,21.68
2023-08-13T06:27:24.109Z,21.68
2023-08-13T06:30:09.122Z,21.59
2023-08-13T06:32:40.703Z,21.45
2023-08-13T06:35:11.726Z,21.36
2023-08-13T06:37:55.681Z,21.11
2023-08-13T06:40:32.629Z,21.07
2023-08-13T06:43:04.811Z,21.07
2023-08-13T06:45:35.342Z,21.11
2023-08-13T06:48:06.206Z,21.01
2023-08-13T06:50:36.761Z,20.95
2023-08-13T06:53:07.517Z,20.94
2023-08-13T06:55:38.015Z,20.93
2023-08-13T06:58:10.160Z,20.73
2023-08-13T07:00:41.820Z,20.83
2023-08-13T07:03:13.801Z,20.67
2023-08-13T07:05:44.580Z,20.83
2023-08-13T07:08:15.308Z,20.98
2023-08-13T07:10:45.826Z,21.00
2023-08-13T07:13:18.022Z,20.87
2023-08-13T07:15:48.614Z,20.96
2023-08-13T07:18:19.227Z,20.95
2023-08-13T07:20:49.722Z,21.34
2023-08-13T07:23:20.321Z,21.42
2023-08-13T07:25:51.398Z,21.40
2023-08-13T07:28:23.371Z,21.35
2023-08-13T07:30:54.390Z,21.44
2023-08-13T07:33:24.883Z,21.36
2023-08-13T07:35:55.507Z,21.26
2023-08-13T07:38:26.130Z,21.24
2023-08-13T07:40:57.461Z,21.37
2023-08-13T07:43:29.881Z,21.25
2023-08-13T07:46:00.366Z,21.15
2023-08-13T07:48:30.915Z,21.07
2023-08-13T07:51:01.572Z,21.02
2023-08-13T07:53:33.547Z,21.01
2023-08-13T07:56:04.688Z,20.98
2023-08-13T07:58:37.261Z,20.95
2023-08-13T08:01:07.842Z,20.75
2023-08-13T08:03:38.503Z,20.67
2023-08-13T08:06:09.161Z,20.45
2023-08-13T08:08:39.589Z,19.98
2023-08-13T08:11:10.124Z,19.75
2023-08-13T08:13:42.288Z,19.25
2023-08-13T08:16:12.800Z,19.13
2023-08-13T08:18:44.499Z,18.96
2023-08-13T08:21:15.226Z,18.72
2023-08-13T08:23:45.877Z,18.51
2023-08-13T08:26:16.332Z,18.24
2023-08-13T08:28:48.512Z,18.37
2023-08-13T08:31:19.047Z,18.15
2023-08-13T08:33:49.544Z,17.96
2023-08-13T08:36:20.041Z,17.97
2023-08-13T08:38:50.774Z,17.94
2023-08-13T08:41:24.296Z,17.55
2023-08-13T08:43:57.892Z,17.81
2023-08-13T08:46:31.173Z,17.98
2023-08-13T08:49:03.577Z,17.95
2023-08-13T08:51:34.155Z,17.89
2023-08-13T08:54:06.362Z,17.73
2023-08-13T08:56:37.248Z,17.74
2023-08-13T08:59:09.398Z,17.82
2023-08-13T09:01:40.230Z,17.84
2023-08-13T09:04:17.105Z,17.84
2023-08-13T09:07:00.934Z,17.91
2023-08-13T09:09:33.110Z,17.95
2023-08-13T09:12:07.172Z,17.94
2023-08-13T09:18:08.294Z,17.42
2023-08-13T09:23:44.158Z,17.66
2023-08-13T09:26:20.938Z,17.63
2023-08-13T09:29:17.578Z,17.63
2023-08-13T09:32:08.839Z,17.61
2023-08-13T09:34:52.438Z,17.53
2023-08-13T09:37:40.358Z,17.40
2023-08-13T09:40:14.313Z,17.18
2023-08-13T09:42:49.843Z,17.05
2023-08-13T09:45:23.317Z,16.85
2023-08-13T09:48:00.495Z,16.71
2023-08-13T09:50:38.824Z,16.37
2023-08-13T09:53:16.748Z,16.59
2023-08-13T09:55:54.715Z,16.65
2023-08-13T09:58:26.292Z,16.56
2023-08-13T10:01:01.062Z,16.63
2023-08-13T10:03:37.441Z,16.52
2023-08-13T10:06:10.545Z,16.48
2023-08-13T10:08:41.238Z,16.41
2023-08-13T10:11:12.277Z,16.29
2023-08-13T10:13:48.590Z,16.12
2023-08-13T10:16:41.493Z,16.00
2023-08-13T10:19:19.965Z,15.89
2023-08-13T10:22:13.400Z,15.87
2023-08-13T10:24:49.562Z,15.81
2023-08-13T10:27:26.368Z,15.83
2023-08-13T10:30:12.209Z,15.53
2023-08-13T10:32:52.530Z,15.51
2023-08-13T10:35:36.448Z,15.61
2023-08-13T10:38:10.439Z,15.60
2023-08-13T10:41:04.418Z,15.60
2023-08-13T10:44:04.066Z,15.63
2023-08-13T10:46:52.703Z,15.68
2023-08-13T10:49:25.787Z,15.72
2023-08-13T10:52:03.676Z,15.73
2023-08-13T10:54:39.048Z,15.58
2023-08-13T10:57:26.824Z,15.65
2023-08-13T10:59:58.389Z,15.78
2023-08-13T11:02:43.237Z,15.42
2023-08-13T11:05:22.438Z,15.13
2023-08-13T11:08:47.296Z,14.94
2023-08-13T11:11:34.855Z,14.79
2023-08-13T11:14:07.255Z,14.71
2023-08-13T11:16:38.966Z,14.63
2023-08-13T11:19:10.869Z,14.53
2023-08-13T11:21:42.749Z,14.52
2023-08-13T11:24:17.722Z,14.46
2023-08-13T11:26:51.304Z,14.22
2023-08-13T11:29:26.945Z,14.39
2023-08-13T11:31:58.978Z,14.38
2023-08-13T11:34:30.856Z,14.33
2023-08-13T11:37:02.880Z,14.30
2023-08-13T11:39:36.585Z,14.30
2023-08-13T11:42:14.791Z,14.24
2023-08-13T11:44:46.576Z,14.24
2023-08-13T11:47:27.110Z,14.04
2023-08-13T11:50:02.132Z,13.97
2023-08-13T11:52:34.815Z,14.14
2023-08-13T11:55:09.410Z,14.24
2023-08-13T11:57:44.279Z,14.19
2023-08-13T12:00:20.220Z,14.15
2023-08-13T12:02:53.086Z,14.12
2023-08-13T12:05:29.537Z,13.91
2023-08-13T12:08:03.794Z,13.88
2023-08-13T12:10:39.193Z,13.84
2023-08-13T12:13:10.783Z,13.87
2023-08-13T12:15:42.613Z,13.89
2023-08-13T12:18:14.243Z,13.81
2023-08-13T12:20:46.839Z,13.88
2023-08-13T12:23:18.614Z,13.77
2023-08-13T12:25:52.132Z,13.68
2023-08-13T12:28:24.850Z,13.62
2023-08-13T12:30:56.687Z,13.68
2023-08-13T12:34:05.898Z,13.57
2023-08-13T12:36:37.979Z,13.54
2023-08-13T12:39:10.258Z,13.52
2023-08-13T12:41:44.019Z,13.15
2023-08-13T12:44:15.736Z,13.35
2023-08-13T12:46:47.567Z,13.31
2023-08-13T12:49:19.736Z,13.31
2023-08-13T12:51:51.824Z,13.40
2023-08-13T12:54:23.739Z,13.39
2023-08-13T12:56:57.552Z,13.33
2023-08-13T12:59:29.923Z,13.26
2023-08-13T13:02:01.777Z,13.24
2023-08-13T13:04:33.761Z,13.25
2023-08-13T13:07:05.558Z,13.23
2023-08-13T13:09:37.138Z,13.13
2023-08-13T13:12:11.789Z,13.27
2023-08-13T13:14:43.675Z,13.31
2023-08-13T13:17:15.973Z,13.29
2023-08-13T13:19:47.820Z,13.29
2023-08-13T13:22:19.790Z,13.27
2023-08-13T13:24:51.394Z,13.25
2023-08-13T13:27:24.733Z,13.17
2023-08-13T13:29:56.494Z,13.25
2023-08-13T13:32:28.391Z,13.27
2023-08-13T13:35:00.217Z,13.17
2023-08-13T13:37:33.392Z,13.03
2023-08-13T13:40:06.059Z,13.13
2023-08-13T13:42:39.867Z,13.25
2023-08-13T13:45:12.488Z,13.25
2023-08-13T13:47:44.665Z,13.38
2023-08-13T13:50:16.456Z,13.32
2023-08-13T13:52:50.352Z,13.25
2023-08-13T13:55:22.225Z,12.88
2023-08-13T13:57:55.901Z,13.19
2023-08-13T14:00:27.627Z,13.13
2023-08-13T14:02:59.552Z,13.07
2023-08-13T14:05:31.392Z,13.05
2023-08-13T14:08:03.397Z,13.04
2023-08-13T14:10:35.429Z,13.10
2023-08-13T14:13:09.010Z,13.00
2023-08-13T14:15:41.144Z,12.98
2023-08-13T14:18:13.324Z,13.04
2023-08-13T14:20:45.133Z,13.03
2023-08-13T14:23:16.972Z,13.00
2023-08-13T14:25:48.840Z,13.05
2023-08-13T14:28:22.373Z,13.11
2023-08-13T14:30:54.372Z,13.05
2023-08-13T14:33:26.353Z,13.03
2023-08-13T14:35:58.531Z,13.08
2023-08-13T14:38:30.661Z,13.02
2023-08-13T14:41:02.539Z,13.11
2023-08-13T14:43:36.295Z,13.14
2023-08-13T14:46:07.975Z,13.13
2023-08-13T14:48:39.895Z,13.10
2023-08-13T14:51:11.938Z,13.10
2023-08-13T14:53:43.956Z,12.80
2023-08-13T14:56:15.745Z,13.12
2023-08-13T14:58:49.538Z,13.13
2023-08-13T15:01:21.433Z,13.10
2023-08-13T15:03:53.696Z,13.09
2023-08-13T15:06:25.626Z,13.08
2023-08-13T15:08:57.853Z,12.87
2023-08-13T15:11:29.650Z,13.05
2023-08-13T15:14:03.560Z,13.09
2023-08-13T15:16:35.278Z,13.06
2023-08-13T15:19:07.072Z,13.01
2023-08-13T15:21:38.836Z,12.94
2023-08-13T15:24:11.580Z,12.93
2023-08-13T15:26:43.689Z,12.86
2023-08-13T15:29:17.265Z,12.68
2023-08-13T15:31:49.112Z,12.78
2023-08-13T15:34:21.214Z,12.31
2023-08-13T15:36:53.101Z,12.51
2023-08-13T15:39:24.870Z,12.58
2023-08-13T15:41:59.629Z,12.65
2023-08-13T15:44:33.382Z,12.73
2023-08-13T15:47:05.096Z,12.76
2023-08-13T15:49:36.891Z,12.57
2023-08-13T15:52:10.106Z,12.50
2023-08-13T15:54:41.889Z,12.55
2023-08-13T15:57:13.963Z,12.68
2023-08-13T15:59:47.643Z,12.79
2023-08-13T16:02:19.617Z,12.80
2023-08-13T16:04:51.530Z,12.75
2023-08-13T16:07:23.469Z,12.68
2023-08-13T16:09:55.380Z,12.55
2023-08-13T16:12:27.144Z,12.52
2023-08-13T16:15:11.500Z,12.39
2023-08-13T16:17:44.588Z,12.18
2023-08-13T16:20:20.248Z,12.14
2023-08-13T16:22:52.008Z,12.18
2023-08-13T16:25:23.815Z,12.07
2023-08-13T16:27:56.268Z,12.16
2023-08-13T16:30:29.984Z,12.15
2023-08-13T16:33:02.583Z,12.16
2023-08-13T16:35:34.350Z,12.24
2023-08-13T16:38:06.397Z,12.25
2023-08-13T16:40:39.527Z,12.25
2023-08-13T16:43:13.472Z,11.95
2023-08-13T16:45:47.543Z,12.17
2023-08-13T16:48:19.352Z,12.03
2023-08-13T16:50:50.801Z,12.06
2023-08-13T16:53:22.786Z,11.97
2023-08-13T16:55:59.202Z,12.05
2023-08-13T16:58:30.996Z,12.03
2023-08-13T17:01:05.557Z,12.01
2023-08-13T17:03:37.217Z,11.99
2023-08-13T17:06:09.153Z,11.99
2023-08-13T17:08:41.061Z,11.98
2023-08-13T17:11:12.503Z,11.98
2023-08-13T17:13:45.067Z,12.00
2023-08-13T17:16:18.978Z,11.91
2023-08-13T17:18:50.752Z,12.01
2023-08-13T17:21:23.057Z,12.01
2023-08-13T17:23:55.116Z,11.89
2023-08-13T17:26:27.667Z,11.81
2023-08-13T17:28:59.774Z,11.78
2023-08-13T17:31:34.277Z,11.89
2023-08-13T17:34:06.234Z,11.97
2023-08-13T17:36:37.022Z,12.03
2023-08-13T17:39:13.706Z,12.09
2023-08-13T17:41:44.265Z,12.05
2023-08-13T17:44:14.859Z,12.01
2023-08-13T17:46:47.119Z,11.98
2023-08-13T17:49:19.666Z,11.74
2023-08-13T17:51:53.332Z,12.03
2023-08-13T17:54:27.316Z,12.04
2023-08-13T17:56:58.941Z,12.02
2023-08-13T17:59:32.722Z,12.06
2023-08-13T18:02:08.962Z,12.13
2023-08-13T18:04:41.840Z,12.13
2023-08-13T18:07:14.400Z,12.02
2023-08-13T18:09:46.856Z,11.92
2023-08-13T18:12:17.452Z,11.91
2023-08-13T18:14:48.072Z,11.91
2023-08-13T18:17:20.564Z,11.94
2023-08-13T18:19:54.798Z,11.90
2023-08-13T18:22:25.572Z,11.87
2023-08-13T18:24:57.733Z,11.83
2023-08-13T18:27:28.338Z,11.77
2023-08-13T18:30:01.536Z,11.75
2023-08-13T18:32:33.977Z,11.75
2023-08-13T18:35:06.613Z,11.80
2023-08-13T18:37:37.114Z,11.78
2023-08-13T18:40:14.520Z,11.78
2023-08-13T18:42:45.437Z,11.73
2023-08-13T18:45:15.979Z,11.45
2023-08-13T18:47:48.474Z,11.68
2023-08-13T18:50:22.540Z,11.64
2023-08-13T18:52:56.108Z,11.66
2023-08-13T18:55:28.299Z,11.61
2023-08-13T18:57:58.872Z,11.55
2023-08-13T19:00:42.808Z,11.53
2023-08-13T19:03:15.368Z,11.54
2023-08-13T19:05:47.209Z,11.07
2023-08-13T19:08:17.905Z,11.54
2023-08-13T19:10:48.707Z,11.33
2023-08-13T19:13:20.272Z,11.23
2023-08-13T19:15:50.944Z,11.43
2023-08-13T19:18:24.726Z,11.38
2023-08-13T19:20:55.995Z,11.47
2023-08-13T19:23:26.409Z,11.47
2023-08-13T19:25:56.895Z,11.38
2023-08-13T19:28:27.429Z,11.60
2023-08-13T19:30:58.020Z,11.61
2023-08-13T19:33:30.277Z,11.65
2023-08-13T19:36:00.713Z,11.70
2023-08-13T19:38:31.303Z,11.60
2023-08-13T19:41:01.958Z,11.62
2023-08-13T19:43:32.502Z,11.78
2023-08-13T19:46:02.996Z,11.86
2023-08-13T19:48:35.148Z,11.91
2023-08-13T19:51:05.612Z,11.92
2023-08-13T19:53:36.258Z,11.89
2023-08-13T19:56:06.787Z,11.87
2023-08-13T19:58:37.375Z,11.61
2023-08-13T20:01:08.164Z,11.87
2023-08-13T20:03:40.347Z,11.89
2023-08-13T20:06:10.952Z,11.97
2023-08-13T20:08:41.474Z,12.00
2023-08-13T20:11:11.972Z,12.16
2023-08-13T20:13:42.508Z,12.34
2023-08-13T20:16:12.959Z,12.44
2023-08-13T20:18:45.069Z,12.72
2023-08-13T20:21:15.612Z,12.84
2023-08-13T20:23:48.115Z,13.08
2023-08-13T20:26:20.010Z,13.26
2023-08-13T20:28:50.925Z,13.43
2023-08-13T20:31:21.470Z,13.65
2023-08-13T20:33:53.604Z,13.69
2023-08-13T20:36:24.470Z,13.50
2023-08-13T20:38:55.086Z,13.33
2023-08-13T20:41:25.640Z,13.22
2023-08-13T20:43:57.062Z,13.25
2023-08-13T20:46:27.634Z,13.46
2023-08-13T20:48:59.790Z,13.66
2023-08-13T20:51:30.529Z,13.84
2023-08-13T20:54:01.012Z,13.82
2023-08-13T20:56:31.900Z,13.85
2023-08-13T20:59:02.507Z,14.14
2023-08-13T21:01:33.622Z,14.13
2023-08-13T21:04:06.367Z,14.06
2023-08-13T21:06:37.158Z,13.75
2023-08-13T21:09:07.824Z,14.00
2023-08-13T21:11:38.428Z,14.17
2023-08-13T21:14:09.230Z,14.03
2023-08-13T21:16:39.727Z,14.12
2023-08-13T21:19:12.010Z,14.18
2023-08-13T21:21:42.581Z,14.35
2023-08-13T21:24:13.013Z,14.52
2023-08-13T21:26:43.518Z,14.69
2023-08-13T21:29:14.819Z,14.77
2023-08-13T21:31:45.366Z,14.80
2023-08-13T21:34:17.424Z,14.98
2023-08-13T21:36:47.928Z,15.09
2023-08-13T21:39:18.968Z,15.32
2023-08-13T21:41:50.228Z,15.47
2023-08-13T21:44:20.681Z,15.65
2023-08-13T21:46:51.250Z,15.69
2023-08-13T21:49:23.378Z,15.80
2023-08-13T21:51:54.512Z,15.96
2023-08-13T21:54:25.069Z,16.04
2023-08-13T21:56:55.442Z,16.17
2023-08-13T21:59:26.101Z,16.08
2023-08-13T22:01:56.644Z,16.35
2023-08-13T22:04:28.881Z,16.50
2023-08-13T22:06:59.424Z,16.52
2023-08-13T22:09:30.011Z,16.61
2023-08-13T22:12:01.033Z,16.77
2023-08-13T22:14:31.678Z,16.88
2023-08-13T22:17:02.302Z,16.97
2023-08-13T22:19:52.219Z,16.97
2023-08-13T22:22:23.475Z,16.94
2023-08-13T22:24:54.216Z,17.09
2023-08-13T22:27:24.916Z,17.14
2023-08-13T22:29:55.405Z,17.18
2023-08-13T22:32:25.981Z,17.38
2023-08-13T22:34:58.173Z,17.53
2023-08-13T22:37:28.766Z,17.58
2023-08-13T22:39:59.411Z,17.79
2023-08-13T22:42:29.907Z,17.81
2023-08-13T22:45:00.417Z,18.07
2023-08-13T22:47:30.960Z,18.03
2023-08-13T22:50:07.561Z,18.10
2023-08-13T22:52:38.063Z,18.01
2023-08-13T22:55:10.826Z,17.95
2023-08-13T22:57:41.676Z,18.05
2023-08-13T23:00:16.910Z,17.98
2023-08-13T23:02:47.585Z,18.10
2023-08-13T23:05:19.715Z,18.13
2023-08-13T23:07:50.235Z,18.25
2023-08-13T23:10:20.981Z,18.33
2023-08-13T23:12:51.542Z,18.34
2023-08-13T23:15:22.144Z,18.37
2023-08-13T23:17:52.711Z,18.53
2023-08-13T23:20:25.005Z,18.38
2023-08-13T23:22:58.635Z,18.50
2023-08-13T23:25:29.136Z,18.68
2023-08-13T23:27:59.638Z,18.77
2023-08-13T23:30:30.014Z,18.75
2023-08-13T23:33:00.466Z,18.73
2023-08-13T23:35:32.672Z,18.42
2023-08-13T23:38:03.143Z,18.70
2023-08-13T23:40:33.628Z,18.88
2023-08-13T23:43:04.140Z,19.06
2023-08-13T23:45:34.688Z,19.00
2023-08-13T23:48:05.267Z,19.08
2023-08-13T23:50:53.625Z,19.09
2023-08-13T23:53:25.867Z,18.93
2023-08-13T23:55:56.361Z,19.30
2023-08-13T23:58:26.801Z,19.22
